sensor_id;sensor_type;location;lat;lon;timestamp;P1;durP1;ratioP1;P2;durP2;ratioP2
4430;SDS011;2228;48.140;11.488;2022-10-18T00:02:10;10.32;;;5.95;;
4430;SDS011;2228;48.140;11.488;2022-10-18T00:04:37;10.13;;;5.70;;
4430;SDS011;2228;48.140;11.488;2022-10-18T00:07:04;10.05;;;6.50;;
4430;SDS011;2228;48.140;11.488;2022-10-18T00:09:31;7.90;;;5.40;;
4430;SDS011;2228;48.140;11.488;2022-10-18T00:11:59;11.50;;;6.60;;
4430;SDS011;2228;48.140;11.488;2022-10-18T00:14:26;14.38;;;7.43;;
4430;SDS011;2228;48.140;11.488;2022-10-18T00:16:53;12.57;;;7.05;;
4430;SDS011;2228;48.140;11.488;2022-10-18T00:19:21;15.35;;;7.28;;
4430;SDS011;2228;48.140;11.488;2022-10-18T00:21:48;9.90;;;6.50;;
4430;SDS011;2228;48.140;11.488;2022-10-18T00:24:15;11.77;;;6.60;;
4430;SDS011;2228;48.140;11.488;2022-10-18T00:26:43;13.53;;;8.00;;
4430;SDS011;2228;48.140;11.488;2022-10-18T00:29:11;13.43;;;7.88;;
4430;SDS011;2228;48.140;11.488;2022-10-18T00:31:40;14.37;;;7.63;;
4430;SDS011;2228;48.140;11.488;2022-10-18T00:34:10;16.13;;;7.72;;
4430;SDS011;2228;48.140;11.488;2022-10-18T00:36:39;12.55;;;6.40;;
4430;SDS011;2228;48.140;11.488;2022-10-18T00:39:08;9.50;;;6.03;;
4430;SDS011;2228;48.140;11.488;2022-10-18T00:41:40;12.82;;;6.72;;
4430;SDS011;2228;48.140;11.488;2022-10-18T00:47:07;9.38;;;5.35;;
4430;SDS011;2228;48.140;11.488;2022-10-18T00:49:36;11.57;;;7.28;;
4430;SDS011;2228;48.140;11.488;2022-10-18T00:52:08;11.32;;;7.47;;
4430;SDS011;2228;48.140;11.488;2022-10-18T00:54:38;10.38;;;6.63;;
4430;SDS011;2228;48.140;11.488;2022-10-18T00:57:08;10.45;;;5.65;;
4430;SDS011;2228;48.140;11.488;2022-10-18T00:59:35;12.02;;;5.95;;
4430;SDS011;2228;48.140;11.488;2022-10-18T01:02:03;12.27;;;6.20;;
4430;SDS011;2228;48.140;11.488;2022-10-18T01:04:31;13.90;;;6.05;;
4430;SDS011;2228;48.140;11.488;2022-10-18T01:07:00;10.88;;;5.82;;
4430;SDS011;2228;48.140;11.488;2022-10-18T01:09:36;8.73;;;5.70;;
4430;SDS011;2228;48.140;11.488;2022-10-18T01:12:11;7.03;;;4.85;;
4430;SDS011;2228;48.140;11.488;2022-10-18T01:14:48;9.63;;;5.45;;
4430;SDS011;2228;48.140;11.488;2022-10-18T01:17:23;9.98;;;5.90;;
4430;SDS011;2228;48.140;11.488;2022-10-18T01:20:01;9.35;;;6.00;;
4430;SDS011;2228;48.140;11.488;2022-10-18T01:22:43;10.30;;;6.23;;
4430;SDS011;2228;48.140;11.488;2022-10-18T01:25:21;11.98;;;6.13;;
4430;SDS011;2228;48.140;11.488;2022-10-18T01:27:57;8.32;;;5.57;;
4430;SDS011;2228;48.140;11.488;2022-10-18T01:30:38;9.73;;;6.10;;
4430;SDS011;2228;48.140;11.488;2022-10-18T01:33:14;11.32;;;6.40;;
4430;SDS011;2228;48.140;11.488;2022-10-18T01:35:50;14.10;;;6.90;;
4430;SDS011;2228;48.140;11.488;2022-10-18T01:38:20;10.40;;;6.60;;
4430;SDS011;2228;48.140;11.488;2022-10-18T01:40:50;12.00;;;6.55;;
4430;SDS011;2228;48.140;11.488;2022-10-18T01:43:18;9.25;;;5.70;;
4430;SDS011;2228;48.140;11.488;2022-10-18T01:45:49;8.77;;;6.00;;
4430;SDS011;2228;48.140;11.488;2022-10-18T01:48:19;8.90;;;5.38;;
4430;SDS011;2228;48.140;11.488;2022-10-18T01:50:47;8.60;;;6.50;;
4430;SDS011;2228;48.140;11.488;2022-10-18T01:53:27;11.32;;;7.00;;
4430;SDS011;2228;48.140;11.488;2022-10-18T01:56:00;10.07;;;6.05;;
4430;SDS011;2228;48.140;11.488;2022-10-18T01:58:49;10.68;;;5.65;;
4430;SDS011;2228;48.140;11.488;2022-10-18T02:01:27;9.90;;;6.30;;
4430;SDS011;2228;48.140;11.488;2022-10-18T02:04:02;13.52;;;6.53;;
4430;SDS011;2228;48.140;11.488;2022-10-18T02:06:34;11.93;;;6.65;;
4430;SDS011;2228;48.140;11.488;2022-10-18T02:09:07;10.75;;;6.30;;
4430;SDS011;2228;48.140;11.488;2022-10-18T02:11:37;13.07;;;6.10;;
4430;SDS011;2228;48.140;11.488;2022-10-18T02:14:08;10.52;;;5.70;;
4430;SDS011;2228;48.140;11.488;2022-10-18T02:16:39;11.20;;;5.88;;
4430;SDS011;2228;48.140;11.488;2022-10-18T02:19:10;11.18;;;6.20;;
4430;SDS011;2228;48.140;11.488;2022-10-18T02:21:40;9.57;;;6.20;;
4430;SDS011;2228;48.140;11.488;2022-10-18T02:24:08;14.65;;;6.32;;
4430;SDS011;2228;48.140;11.488;2022-10-18T02:26:37;10.55;;;5.50;;
4430;SDS011;2228;48.140;11.488;2022-10-18T02:29:04;9.55;;;5.32;;
4430;SDS011;2228;48.140;11.488;2022-10-18T02:31:32;7.75;;;5.10;;
4430;SDS011;2228;48.140;11.488;2022-10-18T02:34:07;11.35;;;6.47;;
4430;SDS011;2228;48.140;11.488;2022-10-18T02:36:42;9.40;;;6.03;;
4430;SDS011;2228;48.140;11.488;2022-10-18T02:39:18;11.80;;;5.72;;
4430;SDS011;2228;48.140;11.488;2022-10-18T02:41:59;13.67;;;6.30;;
4430;SDS011;2228;48.140;11.488;2022-10-18T02:44:26;10.73;;;6.10;;
4430;SDS011;2228;48.140;11.488;2022-10-18T02:46:53;15.02;;;6.40;;
4430;SDS011;2228;48.140;11.488;2022-10-18T02:49:22;11.65;;;6.18;;
4430;SDS011;2228;48.140;11.488;2022-10-18T02:51:49;11.10;;;6.28;;
4430;SDS011;2228;48.140;11.488;2022-10-18T02:54:15;8.95;;;5.60;;
4430;SDS011;2228;48.140;11.488;2022-10-18T02:56:42;10.23;;;6.38;;
4430;SDS011;2228;48.140;11.488;2022-10-18T02:59:09;12.98;;;6.70;;
4430;SDS011;2228;48.140;11.488;2022-10-18T03:01:36;10.35;;;5.82;;
4430;SDS011;2228;48.140;11.488;2022-10-18T03:04:03;7.93;;;5.50;;
4430;SDS011;2228;48.140;11.488;2022-10-18T03:06:32;11.35;;;6.18;;
4430;SDS011;2228;48.140;11.488;2022-10-18T03:09:00;10.55;;;5.75;;
4430;SDS011;2228;48.140;11.488;2022-10-18T03:11:28;12.63;;;5.43;;
4430;SDS011;2228;48.140;11.488;2022-10-18T03:13:55;9.38;;;5.90;;
4430;SDS011;2228;48.140;11.488;2022-10-18T03:16:22;8.10;;;4.80;;
4430;SDS011;2228;48.140;11.488;2022-10-18T03:18:49;9.52;;;5.53;;
4430;SDS011;2228;48.140;11.488;2022-10-18T03:21:16;8.43;;;4.90;;
4430;SDS011;2228;48.140;11.488;2022-10-18T03:23:44;8.00;;;4.90;;
4430;SDS011;2228;48.140;11.488;2022-10-18T03:26:11;9.30;;;5.70;;
4430;SDS011;2228;48.140;11.488;2022-10-18T03:28:38;12.18;;;7.30;;
4430;SDS011;2228;48.140;11.488;2022-10-18T03:31:05;11.98;;;6.30;;
4430;SDS011;2228;48.140;11.488;2022-10-18T03:33:32;9.50;;;5.78;;
4430;SDS011;2228;48.140;11.488;2022-10-18T03:35:59;11.73;;;6.25;;
4430;SDS011;2228;48.140;11.488;2022-10-18T03:38:26;16.67;;;6.50;;
4430;SDS011;2228;48.140;11.488;2022-10-18T03:40:55;11.05;;;6.00;;
4430;SDS011;2228;48.140;11.488;2022-10-18T03:43:22;11.20;;;5.83;;
4430;SDS011;2228;48.140;11.488;2022-10-18T03:45:49;11.03;;;6.40;;
4430;SDS011;2228;48.140;11.488;2022-10-18T03:48:16;11.77;;;5.70;;
4430;SDS011;2228;48.140;11.488;2022-10-18T03:50:43;8.20;;;5.70;;
4430;SDS011;2228;48.140;11.488;2022-10-18T03:53:10;9.25;;;6.10;;
4430;SDS011;2228;48.140;11.488;2022-10-18T03:55:37;8.38;;;5.70;;
4430;SDS011;2228;48.140;11.488;2022-10-18T03:58:05;19.40;;;6.70;;
4430;SDS011;2228;48.140;11.488;2022-10-18T04:00:33;12.07;;;6.15;;
4430;SDS011;2228;48.140;11.488;2022-10-18T04:03:00;11.97;;;6.13;;
4430;SDS011;2228;48.140;11.488;2022-10-18T04:05:27;11.50;;;6.03;;
4430;SDS011;2228;48.140;11.488;2022-10-18T04:07:55;10.57;;;6.13;;
4430;SDS011;2228;48.140;11.488;2022-10-18T04:10:23;8.57;;;5.55;;
4430;SDS011;2228;48.140;11.488;2022-10-18T04:12:50;10.02;;;5.15;;
4430;SDS011;2228;48.140;11.488;2022-10-18T04:15:18;9.05;;;5.32;;
4430;SDS011;2228;48.140;11.488;2022-10-18T04:17:45;8.27;;;5.63;;
4430;SDS011;2228;48.140;11.488;2022-10-18T04:20:12;19.70;;;5.80;;
4430;SDS011;2228;48.140;11.488;2022-10-18T04:22:39;8.40;;;5.18;;
4430;SDS011;2228;48.140;11.488;2022-10-18T04:25:06;8.30;;;5.00;;
4430;SDS011;2228;48.140;11.488;2022-10-18T04:27:35;11.30;;;4.82;;
4430;SDS011;2228;48.140;11.488;2022-10-18T04:30:02;9.82;;;4.78;;
4430;SDS011;2228;48.140;11.488;2022-10-18T04:32:31;10.10;;;5.10;;
4430;SDS011;2228;48.140;11.488;2022-10-18T04:34:59;9.38;;;5.25;;
4430;SDS011;2228;48.140;11.488;2022-10-18T04:37:26;10.98;;;5.10;;
4430;SDS011;2228;48.140;11.488;2022-10-18T04:39:53;8.55;;;5.07;;
4430;SDS011;2228;48.140;11.488;2022-10-18T04:42:20;9.07;;;4.85;;
4430;SDS011;2228;48.140;11.488;2022-10-18T04:44:47;7.15;;;4.93;;
4430;SDS011;2228;48.140;11.488;2022-10-18T04:47:14;8.43;;;5.50;;
4430;SDS011;2228;48.140;11.488;2022-10-18T04:49:43;10.13;;;5.30;;
4430;SDS011;2228;48.140;11.488;2022-10-18T04:52:10;9.68;;;5.40;;
4430;SDS011;2228;48.140;11.488;2022-10-18T04:54:37;8.57;;;5.43;;
4430;SDS011;2228;48.140;11.488;2022-10-18T04:57:04;11.13;;;5.15;;
4430;SDS011;2228;48.140;11.488;2022-10-18T04:59:31;8.60;;;5.05;;
4430;SDS011;2228;48.140;11.488;2022-10-18T05:01:58;7.90;;;5.47;;
4430;SDS011;2228;48.140;11.488;2022-10-18T05:04:26;13.03;;;5.20;;
4430;SDS011;2228;48.140;11.488;2022-10-18T05:06:54;8.60;;;5.00;;
4430;SDS011;2228;48.140;11.488;2022-10-18T05:09:21;7.70;;;5.22;;
4430;SDS011;2228;48.140;11.488;2022-10-18T05:11:48;8.50;;;5.60;;
4430;SDS011;2228;48.140;11.488;2022-10-18T05:14:15;9.20;;;6.00;;
4430;SDS011;2228;48.140;11.488;2022-10-18T05:16:42;9.20;;;5.35;;
4430;SDS011;2228;48.140;11.488;2022-10-18T05:19:09;10.40;;;4.68;;
4430;SDS011;2228;48.140;11.488;2022-10-18T05:21:36;10.43;;;5.80;;
4430;SDS011;2228;48.140;11.488;2022-10-18T05:24:05;11.18;;;5.30;;
4430;SDS011;2228;48.140;11.488;2022-10-18T05:26:32;9.75;;;5.53;;
4430;SDS011;2228;48.140;11.488;2022-10-18T05:28:59;14.40;;;6.00;;
4430;SDS011;2228;48.140;11.488;2022-10-18T05:31:26;7.72;;;5.40;;
4430;SDS011;2228;48.140;11.488;2022-10-18T05:33:53;11.52;;;5.93;;
4430;SDS011;2228;48.140;11.488;2022-10-18T05:36:20;8.30;;;5.90;;
4430;SDS011;2228;48.140;11.488;2022-10-18T05:38:49;8.73;;;5.85;;
4430;SDS011;2228;48.140;11.488;2022-10-18T05:41:19;9.27;;;6.50;;
4430;SDS011;2228;48.140;11.488;2022-10-18T05:43:46;10.10;;;6.90;;
4430;SDS011;2228;48.140;11.488;2022-10-18T05:46:13;10.00;;;6.30;;
4430;SDS011;2228;48.140;11.488;2022-10-18T05:48:40;12.30;;;6.80;;
4430;SDS011;2228;48.140;11.488;2022-10-18T05:51:07;15.20;;;5.53;;
4430;SDS011;2228;48.140;11.488;2022-10-18T05:53:34;12.15;;;5.70;;
4430;SDS011;2228;48.140;11.488;2022-10-18T05:56:01;15.30;;;6.20;;
4430;SDS011;2228;48.140;11.488;2022-10-18T05:58:29;12.00;;;5.70;;
4430;SDS011;2228;48.140;11.488;2022-10-18T06:00:57;6.88;;;4.45;;
4430;SDS011;2228;48.140;11.488;2022-10-18T06:03:25;8.45;;;5.10;;
4430;SDS011;2228;48.140;11.488;2022-10-18T06:05:57;10.45;;;4.70;;
4430;SDS011;2228;48.140;11.488;2022-10-18T06:08:24;7.97;;;5.33;;
4430;SDS011;2228;48.140;11.488;2022-10-18T06:10:51;10.10;;;5.28;;
4430;SDS011;2228;48.140;11.488;2022-10-18T06:13:18;9.05;;;4.80;;
4430;SDS011;2228;48.140;11.488;2022-10-18T06:15:46;8.48;;;5.20;;
4430;SDS011;2228;48.140;11.488;2022-10-18T06:18:13;8.90;;;4.80;;
4430;SDS011;2228;48.140;11.488;2022-10-18T06:20:40;9.13;;;5.38;;
4430;SDS011;2228;48.140;11.488;2022-10-18T06:23:07;8.68;;;4.25;;
4430;SDS011;2228;48.140;11.488;2022-10-18T06:25:34;7.72;;;4.60;;
4430;SDS011;2228;48.140;11.488;2022-10-18T06:28:02;7.67;;;4.40;;
4430;SDS011;2228;48.140;11.488;2022-10-18T06:30:29;12.57;;;4.90;;
4430;SDS011;2228;48.140;11.488;2022-10-18T06:32:59;13.10;;;4.85;;
4430;SDS011;2228;48.140;11.488;2022-10-18T06:35:26;12.60;;;5.30;;
4430;SDS011;2228;48.140;11.488;2022-10-18T06:37:53;9.23;;;5.10;;
4430;SDS011;2228;48.140;11.488;2022-10-18T06:40:21;7.75;;;4.75;;
4430;SDS011;2228;48.140;11.488;2022-10-18T06:42:49;7.70;;;4.00;;
4430;SDS011;2228;48.140;11.488;2022-10-18T06:45:15;9.60;;;3.85;;
4430;SDS011;2228;48.140;11.488;2022-10-18T06:47:43;9.05;;;4.30;;
4430;SDS011;2228;48.140;11.488;2022-10-18T06:50:11;7.95;;;4.40;;
4430;SDS011;2228;48.140;11.488;2022-10-18T06:52:38;8.10;;;3.90;;
4430;SDS011;2228;48.140;11.488;2022-10-18T06:55:06;8.93;;;3.87;;
4430;SDS011;2228;48.140;11.488;2022-10-18T06:57:34;8.02;;;3.97;;
4430;SDS011;2228;48.140;11.488;2022-10-18T07:00:01;5.07;;;3.70;;
4430;SDS011;2228;48.140;11.488;2022-10-18T07:02:29;6.75;;;3.80;;
4430;SDS011;2228;48.140;11.488;2022-10-18T07:04:56;5.25;;;3.60;;
4430;SDS011;2228;48.140;11.488;2022-10-18T07:07:25;8.38;;;3.47;;
4430;SDS011;2228;48.140;11.488;2022-10-18T07:09:51;8.75;;;3.40;;
4430;SDS011;2228;48.140;11.488;2022-10-18T07:12:18;5.72;;;3.30;;
4430;SDS011;2228;48.140;11.488;2022-10-18T07:14:45;7.65;;;3.42;;
4430;SDS011;2228;48.140;11.488;2022-10-18T07:17:12;6.15;;;3.50;;
4430;SDS011;2228;48.140;11.488;2022-10-18T07:19:39;5.68;;;3.60;;
4430;SDS011;2228;48.140;11.488;2022-10-18T07:22:06;7.78;;;3.35;;
4430;SDS011;2228;48.140;11.488;2022-10-18T07:24:34;5.07;;;3.50;;
4430;SDS011;2228;48.140;11.488;2022-10-18T07:27:01;7.43;;;3.25;;
4430;SDS011;2228;48.140;11.488;2022-10-18T07:29:28;6.57;;;3.40;;
4430;SDS011;2228;48.140;11.488;2022-10-18T07:31:55;8.32;;;3.42;;
4430;SDS011;2228;48.140;11.488;2022-10-18T07:34:22;8.37;;;3.60;;
4430;SDS011;2228;48.140;11.488;2022-10-18T07:36:49;8.23;;;3.50;;
4430;SDS011;2228;48.140;11.488;2022-10-18T07:39:16;5.65;;;3.22;;
4430;SDS011;2228;48.140;11.488;2022-10-18T07:41:44;5.57;;;3.13;;
4430;SDS011;2228;48.140;11.488;2022-10-18T07:44:11;8.15;;;3.67;;
4430;SDS011;2228;48.140;11.488;2022-10-18T07:46:38;8.50;;;3.40;;
4430;SDS011;2228;48.140;11.488;2022-10-18T07:49:05;5.50;;;2.97;;
4430;SDS011;2228;48.140;11.488;2022-10-18T07:51:32;10.27;;;3.67;;
4430;SDS011;2228;48.140;11.488;2022-10-18T07:54:00;6.72;;;3.13;;
4430;SDS011;2228;48.140;11.488;2022-10-18T07:56:27;6.60;;;2.90;;
4430;SDS011;2228;48.140;11.488;2022-10-18T07:58:55;5.25;;;3.20;;
4430;SDS011;2228;48.140;11.488;2022-10-18T08:01:22;5.80;;;3.20;;
4430;SDS011;2228;48.140;11.488;2022-10-18T08:03:50;11.85;;;3.17;;
4430;SDS011;2228;48.140;11.488;2022-10-18T08:06:18;4.95;;;3.00;;
4430;SDS011;2228;48.140;11.488;2022-10-18T08:08:46;8.77;;;3.15;;
4430;SDS011;2228;48.140;11.488;2022-10-18T08:11:14;7.35;;;3.05;;
4430;SDS011;2228;48.140;11.488;2022-10-18T08:13:42;7.72;;;3.22;;
4430;SDS011;2228;48.140;11.488;2022-10-18T08:16:12;4.97;;;2.90;;
4430;SDS011;2228;48.140;11.488;2022-10-18T08:18:40;5.10;;;2.70;;
4430;SDS011;2228;48.140;11.488;2022-10-18T08:21:09;7.10;;;3.17;;
4430;SDS011;2228;48.140;11.488;2022-10-18T08:23:37;6.90;;;2.80;;
4430;SDS011;2228;48.140;11.488;2022-10-18T08:26:06;8.63;;;2.85;;
4430;SDS011;2228;48.140;11.488;2022-10-18T08:28:34;5.23;;;2.80;;
4430;SDS011;2228;48.140;11.488;2022-10-18T08:31:02;6.57;;;2.77;;
4430;SDS011;2228;48.140;11.488;2022-10-18T08:33:30;5.78;;;2.60;;
4430;SDS011;2228;48.140;11.488;2022-10-18T08:35:58;12.55;;;2.92;;
4430;SDS011;2228;48.140;11.488;2022-10-18T08:38:27;6.30;;;2.78;;
4430;SDS011;2228;48.140;11.488;2022-10-18T08:40:55;4.93;;;3.20;;
4430;SDS011;2228;48.140;11.488;2022-10-18T08:43:25;4.70;;;2.43;;
4430;SDS011;2228;48.140;11.488;2022-10-18T08:45:59;8.90;;;2.85;;
4430;SDS011;2228;48.140;11.488;2022-10-18T08:48:31;7.55;;;2.85;;
4430;SDS011;2228;48.140;11.488;2022-10-18T08:51:01;6.53;;;3.03;;
4430;SDS011;2228;48.140;11.488;2022-10-18T08:53:33;5.63;;;2.70;;
4430;SDS011;2228;48.140;11.488;2022-10-18T08:56:09;7.87;;;3.13;;
4430;SDS011;2228;48.140;11.488;2022-10-18T08:58:39;7.38;;;2.88;;
4430;SDS011;2228;48.140;11.488;2022-10-18T09:01:10;2.95;;;2.50;;
4430;SDS011;2228;48.140;11.488;2022-10-18T09:03:50;3.90;;;2.90;;
4430;SDS011;2228;48.140;11.488;2022-10-18T09:06:34;3.75;;;2.70;;
4430;SDS011;2228;48.140;11.488;2022-10-18T09:09:18;9.85;;;2.95;;
4430;SDS011;2228;48.140;11.488;2022-10-18T09:11:57;5.68;;;3.03;;
4430;SDS011;2228;48.140;11.488;2022-10-18T09:17:42;6.30;;;2.78;;
4430;SDS011;2228;48.140;11.488;2022-10-18T09:20:22;6.35;;;2.90;;
4430;SDS011;2228;48.140;11.488;2022-10-18T09:22:51;5.60;;;3.47;;
4430;SDS011;2228;48.140;11.488;2022-10-18T09:25:20;3.25;;;2.92;;
4430;SDS011;2228;48.140;11.488;2022-10-18T09:27:50;10.70;;;2.50;;
4430;SDS011;2228;48.140;11.488;2022-10-18T09:30:31;5.57;;;2.90;;
4430;SDS011;2228;48.140;11.488;2022-10-18T09:33:08;8.32;;;3.22;;
4430;SDS011;2228;48.140;11.488;2022-10-18T09:35:55;5.03;;;2.75;;
4430;SDS011;2228;48.140;11.488;2022-10-18T09:38:24;7.22;;;3.10;;
4430;SDS011;2228;48.140;11.488;2022-10-18T09:40:55;3.45;;;2.30;;
4430;SDS011;2228;48.140;11.488;2022-10-18T09:43:30;7.63;;;3.08;;
4430;SDS011;2228;48.140;11.488;2022-10-18T09:46:07;4.68;;;2.90;;
4430;SDS011;2228;48.140;11.488;2022-10-18T09:48:39;6.63;;;2.57;;
4430;SDS011;2228;48.140;11.488;2022-10-18T09:51:12;4.72;;;2.35;;
4430;SDS011;2228;48.140;11.488;2022-10-18T09:53:51;5.70;;;2.58;;
4430;SDS011;2228;48.140;11.488;2022-10-18T09:56:28;7.35;;;2.63;;
4430;SDS011;2228;48.140;11.488;2022-10-18T09:58:56;7.10;;;2.63;;
4430;SDS011;2228;48.140;11.488;2022-10-18T10:01:24;5.25;;;2.70;;
4430;SDS011;2228;48.140;11.488;2022-10-18T10:03:52;5.93;;;2.83;;
4430;SDS011;2228;48.140;11.488;2022-10-18T10:06:24;6.10;;;2.40;;
4430;SDS011;2228;48.140;11.488;2022-10-18T10:08:53;6.97;;;2.80;;
4430;SDS011;2228;48.140;11.488;2022-10-18T10:11:34;3.95;;;2.80;;
4430;SDS011;2228;48.140;11.488;2022-10-18T10:14:11;8.10;;;3.30;;
4430;SDS011;2228;48.140;11.488;2022-10-18T10:16:43;6.50;;;2.63;;
4430;SDS011;2228;48.140;11.488;2022-10-18T10:19:24;5.57;;;2.53;;
4430;SDS011;2228;48.140;11.488;2022-10-18T10:21:56;9.50;;;2.90;;
4430;SDS011;2228;48.140;11.488;2022-10-18T10:24:32;4.72;;;2.78;;
4430;SDS011;2228;48.140;11.488;2022-10-18T10:27:03;6.15;;;2.28;;
4430;SDS011;2228;48.140;11.488;2022-10-18T10:29:37;7.07;;;2.58;;
4430;SDS011;2228;48.140;11.488;2022-10-18T10:32:22;5.43;;;2.80;;
4430;SDS011;2228;48.140;11.488;2022-10-18T10:34:53;5.03;;;2.47;;
4430;SDS011;2228;48.140;11.488;2022-10-18T10:37:23;5.00;;;2.80;;
4430;SDS011;2228;48.140;11.488;2022-10-18T10:40:06;7.20;;;2.80;;
4430;SDS011;2228;48.140;11.488;2022-10-18T10:42:53;5.82;;;2.53;;
4430;SDS011;2228;48.140;11.488;2022-10-18T10:45:23;6.57;;;2.80;;
4430;SDS011;2228;48.140;11.488;2022-10-18T10:47:52;5.40;;;2.50;;
4430;SDS011;2228;48.140;11.488;2022-10-18T10:50:24;5.80;;;2.70;;
4430;SDS011;2228;48.140;11.488;2022-10-18T10:52:54;6.75;;;2.40;;
4430;SDS011;2228;48.140;11.488;2022-10-18T10:55:21;4.45;;;2.83;;
4430;SDS011;2228;48.140;11.488;2022-10-18T10:57:52;4.18;;;2.55;;
4430;SDS011;2228;48.140;11.488;2022-10-18T11:00:37;7.40;;;2.83;;
4430;SDS011;2228;48.140;11.488;2022-10-18T11:03:10;10.38;;;2.60;;
4430;SDS011;2228;48.140;11.488;2022-10-18T11:05:43;3.50;;;2.47;;
4430;SDS011;2228;48.140;11.488;2022-10-18T11:08:15;4.55;;;2.60;;
4430;SDS011;2228;48.140;11.488;2022-10-18T11:10:59;6.63;;;2.83;;
4430;SDS011;2228;48.140;11.488;2022-10-18T11:13:32;9.02;;;3.80;;
4430;SDS011;2228;48.140;11.488;2022-10-18T11:16:11;5.10;;;2.30;;
4430;SDS011;2228;48.140;11.488;2022-10-18T11:18:42;8.43;;;3.70;;
4430;SDS011;2228;48.140;11.488;2022-10-18T11:21:13;5.60;;;3.22;;
4430;SDS011;2228;48.140;11.488;2022-10-18T11:23:45;4.32;;;2.45;;
4430;SDS011;2228;48.140;11.488;2022-10-18T11:29:19;6.10;;;2.80;;
4430;SDS011;2228;48.140;11.488;2022-10-18T11:31:57;4.93;;;2.10;;
4430;SDS011;2228;48.140;11.488;2022-10-18T11:37:36;7.97;;;2.70;;
4430;SDS011;2228;48.140;11.488;2022-10-18T11:40:17;5.20;;;3.20;;
4430;SDS011;2228;48.140;11.488;2022-10-18T11:42:59;4.20;;;2.57;;
4430;SDS011;2228;48.140;11.488;2022-10-18T11:45:37;6.72;;;2.70;;
4430;SDS011;2228;48.140;11.488;2022-10-18T11:48:13;7.65;;;2.75;;
4430;SDS011;2228;48.140;11.488;2022-10-18T11:51:00;6.68;;;2.80;;
4430;SDS011;2228;48.140;11.488;2022-10-18T11:53:37;6.03;;;2.72;;
4430;SDS011;2228;48.140;11.488;2022-10-18T11:56:13;10.48;;;3.30;;
4430;SDS011;2228;48.140;11.488;2022-10-18T11:58:50;6.20;;;2.95;;
4430;SDS011;2228;48.140;11.488;2022-10-18T12:01:28;7.80;;;2.60;;
4430;SDS011;2228;48.140;11.488;2022-10-18T12:04:03;4.47;;;2.47;;
4430;SDS011;2228;48.140;11.488;2022-10-18T12:06:36;8.73;;;2.95;;
4430;SDS011;2228;48.140;11.488;2022-10-18T12:09:08;5.07;;;2.40;;
4430;SDS011;2228;48.140;11.488;2022-10-18T12:11:44;6.15;;;2.55;;
4430;SDS011;2228;48.140;11.488;2022-10-18T12:14:21;8.25;;;2.30;;
4430;SDS011;2228;48.140;11.488;2022-10-18T12:16:51;9.23;;;2.88;;
4430;SDS011;2228;48.140;11.488;2022-10-18T12:19:24;4.93;;;2.50;;
4430;SDS011;2228;48.140;11.488;2022-10-18T12:21:54;4.88;;;2.53;;
4430;SDS011;2228;48.140;11.488;2022-10-18T12:24:24;6.60;;;2.80;;
4430;SDS011;2228;48.140;11.488;2022-10-18T12:26:57;7.18;;;2.47;;
4430;SDS011;2228;48.140;11.488;2022-10-18T12:29:27;6.95;;;1.90;;
4430;SDS011;2228;48.140;11.488;2022-10-18T12:32:00;6.75;;;2.60;;
4430;SDS011;2228;48.140;11.488;2022-10-18T12:34:32;8.55;;;1.80;;
4430;SDS011;2228;48.140;11.488;2022-10-18T12:37:08;5.45;;;2.30;;
4430;SDS011;2228;48.140;11.488;2022-10-18T12:39:52;5.80;;;2.60;;
4430;SDS011;2228;48.140;11.488;2022-10-18T12:42:25;4.80;;;2.40;;
4430;SDS011;2228;48.140;11.488;2022-10-18T12:45:01;4.10;;;2.38;;
4430;SDS011;2228;48.140;11.488;2022-10-18T12:47:30;10.50;;;2.60;;
4430;SDS011;2228;48.140;11.488;2022-10-18T12:50:00;6.03;;;2.20;;
4430;SDS011;2228;48.140;11.488;2022-10-18T12:52:29;7.63;;;2.67;;
4430;SDS011;2228;48.140;11.488;2022-10-18T12:55:04;2.77;;;1.90;;
4430;SDS011;2228;48.140;11.488;2022-10-18T12:58:04;4.40;;;1.80;;
4430;SDS011;2228;48.140;11.488;2022-10-18T13:00:50;5.30;;;2.37;;
4430;SDS011;2228;48.140;11.488;2022-10-18T13:03:34;6.70;;;2.20;;
4430;SDS011;2228;48.140;11.488;2022-10-18T13:06:06;7.05;;;2.17;;
4430;SDS011;2228;48.140;11.488;2022-10-18T13:08:40;6.82;;;2.30;;
4430;SDS011;2228;48.140;11.488;2022-10-18T13:11:26;9.10;;;2.42;;
4430;SDS011;2228;48.140;11.488;2022-10-18T13:17:19;5.55;;;2.13;;
4430;SDS011;2228;48.140;11.488;2022-10-18T13:19:56;5.70;;;2.50;;
4430;SDS011;2228;48.140;11.488;2022-10-18T13:22:39;4.80;;;2.20;;
4430;SDS011;2228;48.140;11.488;2022-10-18T13:25:18;6.20;;;2.63;;
4430;SDS011;2228;48.140;11.488;2022-10-18T13:27:51;6.95;;;2.47;;
4430;SDS011;2228;48.140;11.488;2022-10-18T13:30:25;9.02;;;2.63;;
4430;SDS011;2228;48.140;11.488;2022-10-18T13:33:07;5.33;;;2.40;;
4430;SDS011;2228;48.140;11.488;2022-10-18T13:35:47;6.88;;;2.60;;
4430;SDS011;2228;48.140;11.488;2022-10-18T13:38:28;6.70;;;2.60;;
4430;SDS011;2228;48.140;11.488;2022-10-18T13:41:08;5.78;;;2.10;;
4430;SDS011;2228;48.140;11.488;2022-10-18T13:46:24;5.35;;;2.40;;
4430;SDS011;2228;48.140;11.488;2022-10-18T13:49:50;9.55;;;2.75;;
4430;SDS011;2228;48.140;11.488;2022-10-18T13:52:44;6.93;;;2.60;;
4430;SDS011;2228;48.140;11.488;2022-10-18T13:55:54;7.05;;;2.85;;
4430;SDS011;2228;48.140;11.488;2022-10-18T13:58:29;8.93;;;2.78;;
4430;SDS011;2228;48.140;11.488;2022-10-18T14:01:13;7.90;;;2.70;;
4430;SDS011;2228;48.140;11.488;2022-10-18T14:04:04;6.85;;;2.38;;
4430;SDS011;2228;48.140;11.488;2022-10-18T14:06:59;3.90;;;2.40;;
4430;SDS011;2228;48.140;11.488;2022-10-18T14:09:32;9.93;;;3.05;;
4430;SDS011;2228;48.140;11.488;2022-10-18T14:12:02;7.68;;;2.85;;
4430;SDS011;2228;48.140;11.488;2022-10-18T14:14:39;8.18;;;3.10;;
4430;SDS011;2228;48.140;11.488;2022-10-18T14:17:13;5.07;;;2.78;;
4430;SDS011;2228;48.140;11.488;2022-10-18T14:19:48;7.82;;;2.80;;
4430;SDS011;2228;48.140;11.488;2022-10-18T14:22:21;7.35;;;2.90;;
4430;SDS011;2228;48.140;11.488;2022-10-18T14:24:51;7.55;;;2.80;;
4430;SDS011;2228;48.140;11.488;2022-10-18T14:27:21;6.13;;;2.90;;
4430;SDS011;2228;48.140;11.488;2022-10-18T14:30:05;8.07;;;2.70;;
4430;SDS011;2228;48.140;11.488;2022-10-18T14:32:41;7.03;;;2.60;;
4430;SDS011;2228;48.140;11.488;2022-10-18T14:35:17;7.47;;;2.88;;
4430;SDS011;2228;48.140;11.488;2022-10-18T14:37:48;7.70;;;2.92;;
4430;SDS011;2228;48.140;11.488;2022-10-18T14:43:01;8.20;;;2.90;;
4430;SDS011;2228;48.140;11.488;2022-10-18T14:45:30;7.32;;;2.80;;
4430;SDS011;2228;48.140;11.488;2022-10-18T14:48:09;4.95;;;2.63;;
4430;SDS011;2228;48.140;11.488;2022-10-18T14:50:40;4.20;;;2.60;;
4430;SDS011;2228;48.140;11.488;2022-10-18T14:53:14;5.57;;;2.60;;
4430;SDS011;2228;48.140;11.488;2022-10-18T14:55:51;8.65;;;3.10;;
4430;SDS011;2228;48.140;11.488;2022-10-18T14:58:28;6.65;;;2.50;;
4430;SDS011;2228;48.140;11.488;2022-10-18T15:01:02;8.57;;;3.17;;
4430;SDS011;2228;48.140;11.488;2022-10-18T15:03:41;8.33;;;2.73;;
4430;SDS011;2228;48.140;11.488;2022-10-18T15:06:11;6.60;;;2.70;;
4430;SDS011;2228;48.140;11.488;2022-10-18T15:08:45;10.23;;;2.87;;
4430;SDS011;2228;48.140;11.488;2022-10-18T15:11:16;7.88;;;2.65;;
4430;SDS011;2228;48.140;11.488;2022-10-18T15:13:46;12.32;;;3.00;;
4430;SDS011;2228;48.140;11.488;2022-10-18T15:16:16;6.37;;;2.80;;
4430;SDS011;2228;48.140;11.488;2022-10-18T15:18:57;6.43;;;2.58;;
4430;SDS011;2228;48.140;11.488;2022-10-18T15:21:26;4.10;;;2.35;;
4430;SDS011;2228;48.140;11.488;2022-10-18T15:23:55;7.30;;;2.17;;
4430;SDS011;2228;48.140;11.488;2022-10-18T15:26:47;9.85;;;2.60;;
4430;SDS011;2228;48.140;11.488;2022-10-18T15:29:16;6.50;;;2.47;;
4430;SDS011;2228;48.140;11.488;2022-10-18T15:31:45;5.97;;;2.83;;
4430;SDS011;2228;48.140;11.488;2022-10-18T15:34:15;7.83;;;2.80;;
4430;SDS011;2228;48.140;11.488;2022-10-18T15:36:45;10.82;;;3.05;;
4430;SDS011;2228;48.140;11.488;2022-10-18T15:39:16;7.10;;;2.70;;
4430;SDS011;2228;48.140;11.488;2022-10-18T15:41:45;12.13;;;3.22;;
4430;SDS011;2228;48.140;11.488;2022-10-18T15:44:18;9.40;;;3.57;;
4430;SDS011;2228;48.140;11.488;2022-10-18T15:47:08;5.80;;;2.80;;